createdAt,value
2019-06-26T00:01:17.401Z,21.90
2019-06-26T00:03:47.091Z,21.80
2019-06-26T00:06:16.075Z,21.70
2019-06-26T00:08:44.994Z,21.70
2019-06-26T00:11:14.084Z,21.70
2019-06-26T00:13:43.213Z,21.60
2019-06-26T00:16:12.208Z,21.60
2019-06-26T00:18:41.326Z,21.50
2019-06-26T00:21:10.385Z,21.50
2019-06-26T00:23:39.879Z,21.40
2019-06-26T00:26:08.881Z,21.40
2019-06-26T00:28:37.805Z,21.30
2019-06-26T00:31:07.136Z,21.30
2019-06-26T00:33:36.107Z,21.30
2019-06-26T00:36:05.117Z,21.20
2019-06-26T00:38:34.063Z,21.10
2019-06-26T00:41:02.897Z,21.10
2019-06-26T00:43:42.049Z,21.00
2019-06-26T00:46:02.608Z,21.00
2019-06-26T00:48:31.616Z,21.00
2019-06-26T00:51:00.712Z,21.00
2019-06-26T00:53:29.749Z,21.00
2019-06-26T00:56:00.125Z,21.00
2019-06-26T00:58:29.057Z,20.90
2019-06-26T01:00:58.107Z,20.90
2019-06-26T01:03:27.222Z,20.90
2019-06-26T01:05:56.302Z,20.80
2019-06-26T01:08:25.309Z,20.80
2019-06-26T01:10:54.258Z,20.80
2019-06-26T01:13:23.184Z,20.80
2019-06-26T01:15:52.150Z,20.70
2019-06-26T01:18:21.073Z,20.70
2019-06-26T01:20:50.109Z,20.70
2019-06-26T01:23:22.181Z,20.70
2019-06-26T01:25:51.163Z,20.70
2019-06-26T01:28:20.203Z,20.60
2019-06-26T01:30:49.387Z,20.60
2019-06-26T01:33:18.269Z,20.60
2019-06-26T01:35:47.229Z,20.50
2019-06-26T01:38:16.326Z,20.50
2019-06-26T01:40:45.333Z,20.50
2019-06-26T01:43:14.237Z,20.40
2019-06-26T01:45:43.395Z,20.50
2019-06-26T01:48:12.424Z,20.40
2019-06-26T01:50:41.487Z,20.40
2019-06-26T01:53:11.872Z,20.30
2019-06-26T01:55:40.929Z,20.30
2019-06-26T01:58:09.945Z,20.30
2019-06-26T02:00:38.954Z,20.20
2019-06-26T02:03:08.074Z,20.20
2019-06-26T02:05:37.105Z,20.20
2019-06-26T02:08:06.141Z,20.20
2019-06-26T02:10:35.148Z,20.20
2019-06-26T02:13:04.104Z,20.20
2019-06-26T02:15:33.073Z,20.20
2019-06-26T02:18:02.085Z,20.20
2019-06-26T02:20:31.100Z,20.20
2019-06-26T02:23:00.225Z,20.10
2019-06-26T02:25:29.223Z,20.10
2019-06-26T02:27:58.177Z,20.10
2019-06-26T02:30:27.102Z,20.00
2019-06-26T02:32:56.196Z,20.00
2019-06-26T02:35:25.206Z,20.00
2019-06-26T02:37:54.306Z,20.00
2019-06-26T02:40:23.356Z,20.00
2019-06-26T02:42:52.438Z,20.10
2019-06-26T02:45:21.577Z,20.10
2019-06-26T02:47:51.676Z,20.10
2019-06-26T02:50:23.682Z,20.00
2019-06-26T02:52:52.584Z,19.90
2019-06-26T02:55:21.562Z,20.00
2019-06-26T02:57:50.596Z,19.90
2019-06-26T03:00:19.827Z,20.00
2019-06-26T03:02:48.834Z,20.00
2019-06-26T03:05:17.812Z,20.00
2019-06-26T03:07:46.662Z,20.00
2019-06-26T03:10:16.243Z,20.00
2019-06-26T03:12:45.258Z,20.00
2019-06-26T03:15:15.630Z,20.00
2019-06-26T03:17:54.785Z,20.00
2019-06-26T03:20:17.210Z,19.90
2019-06-26T03:22:46.069Z,19.90
2019-06-26T03:25:15.056Z,20.00
2019-06-26T03:27:44.005Z,20.00
2019-06-26T03:30:13.354Z,20.00
2019-06-26T03:32:42.617Z,20.00
2019-06-26T03:35:11.866Z,20.00
2019-06-26T03:37:40.812Z,20.00
2019-06-26T03:40:10.146Z,20.10
2019-06-26T03:42:39.090Z,20.10
2019-06-26T03:45:24.115Z,20.10
2019-06-26T03:47:39.434Z,20.00
2019-06-26T03:50:10.280Z,20.10
2019-06-26T03:52:39.298Z,20.10
2019-06-26T03:55:08.362Z,20.00
2019-06-26T03:57:37.270Z,20.00
2019-06-26T04:00:07.072Z,20.00
2019-06-26T04:02:35.899Z,19.90
2019-06-26T04:05:05.362Z,19.90
2019-06-26T04:07:34.548Z,19.90
2019-06-26T04:10:04.215Z,20.00
2019-06-26T04:12:33.228Z,20.00
2019-06-26T04:15:02.110Z,20.00
2019-06-26T04:17:31.056Z,20.10
2019-06-26T04:19:59.900Z,20.20
2019-06-26T04:22:28.747Z,20.30
2019-06-26T04:24:57.600Z,20.40
2019-06-26T04:27:26.482Z,20.40
2019-06-26T04:29:55.612Z,20.50
2019-06-26T04:32:24.447Z,20.50
2019-06-26T04:34:54.553Z,20.60
2019-06-26T04:37:23.704Z,20.70
2019-06-26T04:39:52.595Z,20.70
2019-06-26T04:42:21.589Z,20.70
2019-06-26T04:44:50.530Z,20.70
2019-06-26T04:47:19.388Z,20.60
2019-06-26T04:49:48.577Z,20.70
2019-06-26T04:52:17.396Z,20.60
2019-06-26T04:54:46.332Z,20.60
2019-06-26T04:57:15.248Z,20.50
2019-06-26T04:59:44.270Z,20.50
2019-06-26T05:02:13.302Z,20.50
2019-06-26T05:04:42.165Z,20.60
2019-06-26T05:07:11.646Z,20.70
2019-06-26T05:09:40.650Z,20.70
2019-06-26T05:12:09.686Z,20.70
2019-06-26T05:14:38.931Z,21.00
2019-06-26T05:17:07.956Z,21.20
2019-06-26T05:19:36.864Z,21.30
2019-06-26T05:22:05.835Z,21.40
2019-06-26T05:24:34.771Z,21.40
2019-06-26T05:27:03.676Z,21.40
2019-06-26T05:29:32.617Z,21.30
2019-06-26T05:32:01.558Z,21.30
2019-06-26T05:34:30.495Z,21.40
2019-06-26T05:36:59.521Z,21.50
2019-06-26T05:39:28.463Z,21.50
2019-06-26T05:41:57.305Z,21.50
2019-06-26T05:44:26.295Z,21.60
2019-06-26T05:46:55.335Z,21.70
2019-06-26T05:49:24.358Z,21.70
2019-06-26T05:51:56.139Z,21.70
2019-06-26T05:54:25.012Z,21.70
2019-06-26T05:56:54.063Z,21.70
2019-06-26T05:59:23.061Z,22.30
2019-06-26T06:01:52.086Z,22.40
2019-06-26T06:04:21.008Z,22.30
2019-06-26T06:06:49.944Z,22.00
2019-06-26T06:09:18.944Z,21.80
2019-06-26T06:11:47.900Z,21.90
2019-06-26T06:14:16.896Z,21.90
2019-06-26T06:16:48.060Z,21.90
2019-06-26T06:19:17.228Z,21.70
2019-06-26T06:21:46.303Z,21.60
2019-06-26T06:24:15.251Z,21.50
2019-06-26T06:26:44.226Z,21.30
2019-06-26T06:29:13.232Z,21.20
2019-06-26T06:31:42.216Z,21.20
2019-06-26T06:34:11.351Z,21.20
2019-06-26T06:36:40.536Z,21.20
2019-06-26T06:39:09.533Z,21.20
2019-06-26T06:41:38.634Z,21.30
2019-06-26T06:44:07.696Z,21.30
2019-06-26T06:46:36.628Z,21.30
2019-06-26T06:49:05.705Z,21.20
2019-06-26T06:51:34.751Z,21.10
2019-06-26T06:54:03.904Z,21.00
2019-06-26T06:56:32.875Z,21.20
2019-06-26T06:59:01.721Z,21.20
2019-06-26T07:01:30.658Z,21.30
2019-06-26T07:03:59.611Z,21.30
2019-06-26T07:06:28.574Z,21.30
2019-06-26T07:08:57.576Z,21.40
2019-06-26T07:11:27.166Z,21.40
2019-06-26T07:13:56.529Z,21.30
2019-06-26T07:16:25.546Z,21.40
2019-06-26T07:18:54.480Z,21.40
2019-06-26T07:21:23.494Z,21.60
2019-06-26T07:23:52.524Z,21.70
2019-06-26T07:26:21.498Z,21.80
2019-06-26T07:28:50.542Z,21.90
2019-06-26T07:31:19.528Z,22.10
2019-06-26T07:33:48.588Z,22.10
2019-06-26T07:36:17.612Z,22.10
2019-06-26T07:38:46.636Z,22.20
2019-06-26T07:41:15.686Z,22.20
2019-06-26T07:43:44.602Z,22.30
2019-06-26T07:46:14.242Z,22.40
2019-06-26T07:48:43.273Z,22.30
2019-06-26T07:51:12.230Z,22.20
2019-06-26T07:53:41.288Z,22.20
2019-06-26T07:56:10.274Z,22.20
2019-06-26T07:58:39.111Z,22.10
2019-06-26T08:01:08.074Z,22.30
2019-06-26T08:03:36.909Z,22.40
2019-06-26T08:06:05.854Z,22.60
2019-06-26T08:08:34.704Z,22.70
2019-06-26T08:11:06.401Z,22.80
2019-06-26T08:13:34.356Z,22.90
2019-06-26T08:16:03.345Z,23.00
2019-06-26T08:18:32.401Z,23.00
2019-06-26T08:21:11.930Z,23.10
2019-06-26T08:23:32.065Z,23.20
2019-06-26T08:26:00.900Z,23.40
2019-06-26T08:28:29.756Z,23.60
2019-06-26T08:30:58.612Z,23.90
2019-06-26T08:33:27.519Z,24.10
2019-06-26T08:35:56.447Z,24.20
2019-06-26T08:38:25.441Z,24.30
2019-06-26T08:40:54.436Z,25.70
2019-06-26T08:43:23.498Z,26.40
2019-06-26T08:45:52.455Z,26.40
2019-06-26T08:48:38.419Z,26.30
2019-06-26T08:50:55.808Z,26.00
2019-06-26T08:53:24.661Z,25.50
2019-06-26T08:55:53.666Z,25.30
2019-06-26T08:58:22.582Z,25.10
2019-06-26T09:00:51.473Z,25.00
2019-06-26T09:03:20.516Z,25.00
2019-06-26T09:05:49.523Z,24.80
2019-06-26T09:08:18.541Z,24.90
2019-06-26T09:10:47.613Z,25.00
2019-06-26T09:13:16.665Z,25.30
2019-06-26T09:15:49.568Z,25.40
2019-06-26T09:18:16.366Z,25.40
2019-06-26T09:20:45.219Z,25.20
2019-06-26T09:23:14.121Z,25.30
2019-06-26T09:25:43.035Z,25.10
2019-06-26T09:28:12.038Z,25.60
2019-06-26T09:30:41.074Z,25.80
2019-06-26T09:33:10.117Z,25.50
2019-06-26T09:35:39.188Z,25.40
2019-06-26T09:38:08.088Z,25.10
2019-06-26T09:40:37.030Z,25.40
2019-06-26T09:43:05.993Z,25.70
2019-06-26T09:45:34.937Z,25.90
2019-06-26T09:48:03.948Z,26.40
2019-06-26T09:50:32.935Z,26.60
2019-06-26T09:53:04.993Z,27.00
2019-06-26T09:55:32.523Z,27.00
2019-06-26T09:58:01.558Z,26.90
2019-06-26T10:00:30.688Z,26.60
2019-06-26T10:02:59.745Z,26.50
2019-06-26T10:05:28.794Z,26.50
2019-06-26T10:07:57.617Z,26.50
2019-06-26T10:10:26.642Z,26.40
2019-06-26T10:12:55.626Z,26.30
2019-06-26T10:15:24.630Z,26.80
2019-06-26T10:17:53.577Z,26.80
2019-06-26T10:20:22.659Z,26.90
2019-06-26T10:22:51.668Z,26.60
2019-06-26T10:25:20.615Z,26.50
2019-06-26T10:27:49.590Z,26.50
2019-06-26T10:30:18.980Z,26.80
2019-06-26T10:32:47.976Z,27.10
2019-06-26T10:35:18.526Z,26.70
2019-06-26T10:37:47.539Z,26.70
2019-06-26T10:40:16.923Z,26.50
2019-06-26T10:42:46.146Z,26.50
2019-06-26T10:45:15.411Z,26.50
2019-06-26T10:47:44.323Z,26.30
2019-06-26T10:50:13.350Z,26.10
2019-06-26T10:52:42.473Z,26.40
2019-06-26T10:55:11.479Z,26.40
2019-06-26T10:57:40.414Z,26.40
2019-06-26T11:00:10.246Z,26.40
2019-06-26T11:02:39.370Z,26.30
2019-06-26T11:05:08.967Z,26.20
2019-06-26T11:07:37.975Z,25.90
2019-06-26T11:10:07.324Z,25.70
2019-06-26T11:12:36.316Z,25.80
2019-06-26T11:15:05.822Z,25.80
2019-06-26T11:17:34.735Z,25.80
2019-06-26T11:20:03.881Z,25.80
2019-06-26T11:22:32.805Z,25.80
2019-06-26T11:25:01.637Z,25.40
2019-06-26T11:27:30.636Z,25.20
2019-06-26T11:29:59.708Z,25.10
2019-06-26T11:32:28.853Z,24.80
2019-06-26T11:34:57.807Z,24.60
2019-06-26T11:37:26.804Z,24.30
2019-06-26T11:39:55.815Z,24.20
2019-06-26T11:42:24.833Z,24.10
2019-06-26T11:44:53.824Z,23.90
2019-06-26T11:47:22.972Z,23.90
2019-06-26T11:49:59.812Z,23.90
2019-06-26T11:52:22.753Z,23.90
2019-06-26T11:55:02.173Z,23.80
2019-06-26T11:57:22.577Z,23.80
2019-06-26T11:59:51.551Z,23.80
2019-06-26T12:02:20.588Z,23.70
2019-06-26T12:04:49.606Z,23.80
2019-06-26T12:07:18.607Z,23.80
2019-06-26T12:09:47.578Z,23.80
2019-06-26T12:12:16.586Z,23.90
2019-06-26T12:14:45.966Z,23.90
2019-06-26T12:17:14.857Z,23.70
2019-06-26T12:19:43.813Z,23.80
2019-06-26T12:22:12.853Z,23.90
2019-06-26T12:24:41.690Z,24.00
2019-06-26T12:27:10.782Z,24.10
2019-06-26T12:29:39.628Z,24.00
2019-06-26T12:32:08.625Z,24.10
2019-06-26T12:34:37.476Z,24.30
2019-06-26T12:37:06.552Z,24.50
2019-06-26T12:39:35.445Z,24.60
2019-06-26T12:42:04.494Z,24.90
2019-06-26T12:44:33.523Z,25.00
2019-06-26T12:47:02.612Z,24.90
2019-06-26T12:49:31.678Z,24.80
2019-06-26T12:52:00.676Z,24.80
2019-06-26T12:54:29.627Z,25.00
2019-06-26T12:56:58.732Z,24.90
2019-06-26T12:59:27.740Z,24.90
2019-06-26T13:01:56.932Z,25.10
2019-06-26T13:04:25.820Z,25.10
2019-06-26T13:06:54.778Z,25.10
2019-06-26T13:09:23.799Z,25.00
2019-06-26T13:11:52.796Z,25.20
2019-06-26T13:14:21.996Z,25.30
2019-06-26T13:16:51.017Z,25.40
2019-06-26T13:19:19.952Z,25.60
2019-06-26T13:21:48.948Z,25.90
2019-06-26T13:24:17.866Z,25.80
2019-06-26T13:26:46.924Z,25.90
2019-06-26T13:29:15.915Z,25.90
2019-06-26T13:31:45.009Z,25.80
2019-06-26T13:34:14.039Z,25.90
2019-06-26T13:36:43.071Z,25.90
2019-06-26T13:39:12.004Z,26.00
2019-06-26T13:41:40.997Z,26.10
2019-06-26T13:44:09.930Z,26.10
2019-06-26T13:46:38.891Z,26.20
2019-06-26T13:49:07.865Z,26.30
2019-06-26T13:51:39.650Z,26.30
2019-06-26T13:54:08.652Z,26.50
2019-06-26T13:56:37.585Z,26.40
2019-06-26T13:59:07.543Z,26.60
2019-06-26T14:01:36.679Z,26.60
2019-06-26T14:04:05.820Z,26.60
2019-06-26T14:06:34.681Z,26.70
2019-06-26T14:09:04.665Z,27.10
2019-06-26T14:11:33.615Z,27.40
2019-06-26T14:14:02.607Z,27.20
2019-06-26T14:16:31.636Z,27.10
2019-06-26T14:19:00.948Z,27.10
2019-06-26T14:21:30.406Z,27.20
2019-06-26T14:23:59.575Z,27.20
2019-06-26T14:26:28.460Z,27.40
2019-06-26T14:28:57.442Z,27.20
2019-06-26T14:31:26.336Z,27.00
2019-06-26T14:33:55.238Z,26.90
2019-06-26T14:36:24.232Z,26.80
2019-06-26T14:38:53.294Z,26.90
2019-06-26T14:41:22.116Z,26.80
2019-06-26T14:43:51.145Z,27.20
2019-06-26T14:46:20.061Z,27.20
2019-06-26T14:48:49.177Z,27.00
2019-06-26T14:51:18.272Z,26.90
2019-06-26T14:53:47.216Z,26.70
2019-06-26T14:56:16.098Z,26.90
2019-06-26T14:58:45.131Z,27.10
2019-06-26T15:01:14.225Z,27.30
2019-06-26T15:03:43.143Z,27.70
2019-06-26T15:06:16.783Z,27.70
2019-06-26T15:08:42.817Z,27.50
2019-06-26T15:11:15.283Z,27.30
2019-06-26T15:13:42.432Z,27.30
2019-06-26T15:16:12.093Z,27.10
2019-06-26T15:18:41.241Z,26.90
2019-06-26T15:21:14.263Z,26.40
2019-06-26T15:23:48.298Z,26.30
2019-06-26T15:26:17.331Z,26.60
2019-06-26T15:28:46.452Z,26.60
2019-06-26T15:31:15.466Z,26.40
2019-06-26T15:33:44.519Z,26.30
2019-06-26T15:36:13.481Z,26.10
2019-06-26T15:38:42.432Z,26.40
2019-06-26T15:41:11.464Z,26.40
2019-06-26T15:43:40.620Z,26.50
2019-06-26T15:46:09.799Z,26.30
2019-06-26T15:48:38.721Z,26.10
2019-06-26T15:51:07.748Z,26.60
2019-06-26T15:53:36.762Z,26.70
2019-06-26T15:56:05.703Z,26.50
2019-06-26T15:58:34.621Z,26.30
2019-06-26T16:01:03.623Z,26.80
2019-06-26T16:03:32.629Z,26.70
2019-06-26T16:06:01.589Z,26.40
2019-06-26T16:08:30.463Z,26.50
2019-06-26T16:10:59.456Z,26.50
2019-06-26T16:13:28.823Z,26.30
2019-06-26T16:15:57.731Z,26.20
2019-06-26T16:18:31.346Z,26.40
2019-06-26T16:21:00.591Z,26.60
2019-06-26T16:23:29.688Z,26.70
2019-06-26T16:25:58.994Z,26.40
2019-06-26T16:28:28.089Z,26.30
2019-06-26T16:30:57.145Z,26.70
2019-06-26T16:33:26.231Z,26.80
2019-06-26T16:35:55.186Z,26.40
2019-06-26T16:38:24.432Z,26.00
2019-06-26T16:40:53.361Z,25.80
2019-06-26T16:43:22.309Z,26.10
2019-06-26T16:45:51.397Z,26.10
2019-06-26T16:48:24.223Z,26.10
2019-06-26T16:50:53.285Z,26.00
2019-06-26T16:53:22.362Z,25.30
2019-06-26T16:55:51.515Z,25.20
2019-06-26T16:58:23.681Z,25.20
2019-06-26T17:00:52.722Z,25.10
2019-06-26T17:03:21.871Z,25.40
2019-06-26T17:05:51.021Z,25.40
2019-06-26T17:08:20.217Z,25.80
2019-06-26T17:10:49.180Z,25.90
2019-06-26T17:13:18.110Z,25.80
2019-06-26T17:15:47.151Z,25.40
2019-06-26T17:18:16.174Z,25.40
2019-06-26T17:20:45.192Z,25.30
2019-06-26T17:23:14.141Z,25.20
2019-06-26T17:25:43.259Z,25.30
2019-06-26T17:28:12.352Z,24.90
2019-06-26T17:30:42.995Z,24.70
2019-06-26T17:36:06.214Z,24.70
2019-06-26T17:38:36.953Z,24.00
2019-06-26T17:41:09.963Z,23.80
2019-06-26T17:43:39.150Z,23.70
2019-06-26T17:46:09.636Z,24.00
2019-06-26T17:48:38.949Z,23.90
2019-06-26T17:51:08.022Z,23.90
2019-06-26T17:53:40.048Z,23.80
2019-06-26T17:56:09.690Z,24.00
2019-06-26T17:58:38.796Z,23.80
2019-06-26T18:01:11.133Z,23.40
2019-06-26T18:03:40.490Z,23.20
2019-06-26T18:06:09.644Z,23.10
2019-06-26T18:08:38.760Z,22.90
2019-06-26T18:11:08.319Z,23.00
2019-06-26T18:13:48.340Z,22.80
2019-06-26T18:16:21.084Z,22.90
2019-06-26T18:18:56.480Z,22.80
2019-06-26T18:21:29.203Z,22.90
2019-06-26T18:24:01.679Z,22.80
2019-06-26T18:26:39.849Z,22.70
2019-06-26T18:29:09.004Z,22.90
2019-06-26T18:31:38.011Z,23.00
2019-06-26T18:34:07.178Z,22.90
2019-06-26T18:36:36.150Z,22.70
2019-06-26T18:39:07.414Z,22.60
2019-06-26T18:41:36.467Z,22.50
2019-06-26T18:44:05.583Z,22.40
2019-06-26T18:46:34.849Z,22.30
2019-06-26T18:49:03.924Z,22.10
2019-06-26T18:51:32.895Z,22.10
2019-06-26T18:54:01.869Z,22.00
2019-06-26T18:56:30.793Z,21.80
2019-06-26T18:58:59.714Z,21.80
2019-06-26T19:01:28.878Z,21.60
2019-06-26T19:03:57.888Z,21.50
2019-06-26T19:06:27.107Z,21.30
2019-06-26T19:08:56.303Z,21.10
2019-06-26T19:11:25.311Z,21.00
2019-06-26T19:13:54.312Z,21.00
2019-06-26T19:16:28.692Z,20.90
2019-06-26T19:18:57.770Z,20.90
2019-06-26T19:21:26.810Z,20.70
2019-06-26T19:24:09.081Z,20.80
2019-06-26T19:26:26.681Z,21.00
2019-06-26T19:28:59.021Z,20.80
2019-06-26T19:31:29.791Z,20.80
2019-06-26T19:33:58.935Z,20.60
2019-06-26T19:36:28.763Z,20.70
2019-06-26T19:39:01.678Z,20.40
2019-06-26T19:41:34.772Z,20.50
2019-06-26T19:44:09.011Z,20.50
2019-06-26T19:46:41.005Z,20.10
2019-06-26T19:49:09.082Z,20.10
2019-06-26T19:51:40.655Z,20.00
2019-06-26T19:54:25.764Z,19.90
2019-06-26T19:56:40.485Z,19.80
2019-06-26T19:59:09.867Z,19.70
2019-06-26T20:01:38.961Z,19.60
2019-06-26T20:04:08.258Z,19.60
2019-06-26T20:06:37.336Z,19.50
2019-06-26T20:09:07.564Z,19.50
2019-06-26T20:11:38.708Z,19.20
2019-06-26T20:14:10.628Z,19.10
2019-06-26T20:16:41.635Z,19.00
2019-06-26T20:19:10.580Z,19.00
2019-06-26T20:21:42.773Z,19.00
2019-06-26T20:24:17.843Z,18.80
2019-06-26T20:26:47.227Z,18.70
2019-06-26T20:29:16.640Z,18.80
2019-06-26T20:31:46.253Z,18.80
2019-06-26T20:34:16.940Z,18.80
2019-06-26T20:36:48.869Z,18.70
2019-06-26T20:39:21.241Z,18.60
2019-06-26T20:41:50.381Z,18.60
2019-06-26T20:44:20.177Z,18.60
2019-06-26T20:46:49.720Z,18.60
2019-06-26T20:49:18.787Z,18.60
2019-06-26T20:51:48.180Z,18.50
2019-06-26T20:54:17.433Z,18.50
2019-06-26T20:56:46.844Z,18.40
2019-06-26T20:59:16.342Z,18.50
2019-06-26T21:01:47.280Z,18.50
2019-06-26T21:04:16.879Z,18.40
2019-06-26T21:06:47.936Z,18.50
2019-06-26T21:09:26.337Z,18.50
2019-06-26T21:12:01.632Z,18.50
2019-06-26T21:14:29.780Z,18.50
2019-06-26T21:17:06.263Z,18.40
2019-06-26T21:19:35.922Z,18.50
2019-06-26T21:22:09.002Z,18.40
2019-06-26T21:24:38.930Z,18.50
2019-06-26T21:27:08.503Z,18.50
2019-06-26T21:29:39.101Z,18.50
2019-06-26T21:32:10.795Z,18.50
2019-06-26T21:34:41.816Z,18.50
2019-06-26T21:37:14.070Z,18.50
2019-06-26T21:39:47.610Z,18.50
2019-06-26T21:42:16.767Z,18.50
2019-06-26T21:44:45.984Z,18.50
2019-06-26T21:47:15.274Z,18.50
2019-06-26T21:49:44.752Z,18.50
2019-06-26T21:52:14.142Z,18.50
2019-06-26T21:54:44.696Z,18.40
2019-06-26T21:57:13.847Z,18.40
2019-06-26T21:59:46.973Z,18.40
2019-06-26T22:02:21.516Z,18.30
2019-06-26T22:04:50.479Z,18.30
2019-06-26T22:07:20.066Z,18.20
2019-06-26T22:09:49.364Z,18.20
2019-06-26T22:12:18.640Z,18.10
2019-06-26T22:14:47.704Z,18.20
2019-06-26T22:17:22.625Z,18.10
2019-06-26T22:19:53.293Z,18.10
2019-06-26T22:22:25.367Z,18.20
2019-06-26T22:24:54.514Z,18.20
2019-06-26T22:27:29.833Z,18.10
2019-06-26T22:29:59.301Z,18.10
2019-06-26T22:32:32.764Z,18.10
2019-06-26T22:35:02.176Z,18.10
2019-06-26T22:37:33.807Z,18.10
2019-06-26T22:40:07.012Z,18.10
2019-06-26T22:42:36.158Z,18.10
2019-06-26T22:45:11.248Z,18.10
2019-06-26T22:47:45.111Z,18.10
2019-06-26T22:50:14.180Z,18.20
2019-06-26T22:52:43.185Z,18.10
2019-06-26T22:55:12.202Z,18.10
2019-06-26T22:57:41.050Z,18.10
2019-06-26T23:00:13.385Z,18.10
2019-06-26T23:02:45.719Z,18.10
2019-06-26T23:05:15.523Z,18.10
2019-06-26T23:07:44.766Z,18.00
2019-06-26T23:10:14.062Z,17.90
2019-06-26T23:12:43.472Z,18.00
2019-06-26T23:15:13.711Z,18.00
2019-06-26T23:17:42.935Z,18.00
2019-06-26T23:20:12.341Z,17.90
2019-06-26T23:22:44.758Z,17.90
2019-06-26T23:25:14.485Z,17.90
2019-06-26T23:27:43.540Z,17.80
2019-06-26T23:30:18.340Z,17.80
2019-06-26T23:32:47.699Z,17.80
2019-06-26T23:35:17.120Z,17.70
2019-06-26T23:37:46.450Z,17.80
2019-06-26T23:40:16.278Z,17.80
2019-06-26T23:42:47.506Z,17.80
2019-06-26T23:45:18.418Z,17.90
2019-06-26T23:47:47.750Z,17.90
2019-06-26T23:50:17.282Z,17.90
2019-06-26T23:52:46.767Z,17.80
2019-06-26T23:55:16.108Z,17.80
2019-06-26T23:57:58.586Z,17.80
